Time;durP1;ratioP1;P1;durP2;ratioP2;P2;SDS_P1;SDS_P2;PMS_P1;PMS_P2;Temp;Humidity;BMP_temperature;BMP_pressure;BME280_temperature;BME280_humidity;BME280_pressure;Samples;Min_cycle;Max_cycle;Signal;HPM_P1;HPM_P2
2022/12/31 00:02:21;;;;;;;;;;;;;;;6.70;100.00;97915.34;5097502;28;19924;-74
2022/12/31 00:04:49;;;;;;;;;;;;;;;6.61;100.00;97922.09;5094202;28;19962;-74
2022/12/31 00:07:15;;;;;;;;;;;;;;;6.63;100.00;97914.69;5094776;28;19955;-74
2022/12/31 00:09:44;;;;;;;;;;;;;;;6.60;100.00;97915.16;5097238;28;19924;-75
2022/12/31 00:12:11;;;;;;;;;;;;;;;6.56;100.00;97919.34;5097256;28;19959;-75
2022/12/31 00:14:37;;;;;;;;;;;;;;;6.59;100.00;97924.19;5095544;28;20688;-75
2022/12/31 00:17:03;;;;;;;;;;;;;;;6.59;100.00;97927.66;5093190;28;19967;-75
2022/12/31 00:19:30;;;;;;;;;;;;;;;6.56;100.00;97924.66;5095951;28;20028;-76
2022/12/31 00:21:57;;;;;;;;;;;;;;;6.60;100.00;97925.78;5100130;28;20337;-75
2022/12/31 00:24:24;;;;;;;;;;;;;;;6.63;100.00;97920.00;5095071;28;19963;-74
2022/12/31 00:26:52;;;;;;;;;;;;;;;6.66;100.00;97924.81;5097923;28;19947;-75
2022/12/31 00:29:18;;;;;;;;;;;;;;;6.72;100.00;97923.88;5101390;28;19968;-76
2022/12/31 00:31:44;;;;;;;;;;;;;;;6.64;100.00;97916.31;5088453;28;20000;-75
2022/12/31 00:34:11;;;;;;;;;;;;;;;6.63;100.00;97917.34;5096946;28;19952;-75
2022/12/31 00:36:38;;;;;;;;;;;;;;;6.66;100.00;97922.97;5100650;28;19956;-75
2022/12/31 00:39:24;;;;;;;;;;;;;;;6.67;100.00;97937.06;5101818;28;20284;-74
2022/12/31 00:41:50;;;;;;;;;;;;;;;6.64;100.00;97937.53;5088916;28;19924;-74
2022/12/31 00:44:16;;;;;;;;;;;;;;;6.66;100.00;97941.56;5096481;28;19948;-75
2022/12/31 00:46:44;;;;;;;;;;;;;;;6.67;100.00;97940.53;5101283;28;19946;-74
2022/12/31 00:49:10;;;;;;;;;;;;;;;6.74;100.00;97948.34;5101178;28;19950;-74
2022/12/31 00:51:37;;;;;;;;;;;;;;;6.67;100.00;97939.72;5099558;28;20011;-74
2022/12/31 00:54:03;;;;;;;;;;;;;;;6.68;100.00;97939.50;5091617;28;19963;-74
2022/12/31 00:56:31;;;;;;;;;;;;;;;6.69;100.00;97933.13;5099243;28;20012;-74
2022/12/31 00:58:57;;;;;;;;;;;;;;;6.73;100.00;97928.97;5095819;28;19928;-74
2022/12/31 01:01:25;;;;;;;;;;;;;;;6.73;100.00;97944.06;5097509;28;19935;-75
2022/12/31 01:03:52;;;;;;;;;;;;;;;6.78;100.00;97941.50;5101052;28;19967;-74
2022/12/31 01:06:19;;;;;;;;;;;;;;;6.71;100.00;97954.94;5099924;28;19966;-75
2022/12/31 01:08:47;;;;;;;;;;;;;;;6.78;100.00;97952.13;5089267;28;19948;-74
2022/12/31 01:11:18;;;;;;;;;;;;;;;6.72;100.00;97953.06;5098218;28;19963;-74
2022/12/31 01:13:46;;;;;;;;;;;;;;;6.70;100.00;97944.53;5091359;28;19954;-74
2022/12/31 01:16:13;;;;;;;;;;;;;;;6.73;100.00;97963.47;5101719;28;19924;-75
2022/12/31 01:18:40;;;;;;;;;;;;;;;6.81;100.00;97956.94;5101100;28;19928;-75
2022/12/31 01:21:07;;;;;;;;;;;;;;;6.77;100.00;97959.31;5100585;28;19924;-75
2022/12/31 01:23:34;;;;;;;;;;;;;;;6.78;100.00;97971.50;5089498;28;19992;-75
2022/12/31 01:26:01;;;;;;;;;;;;;;;6.81;100.00;97968.38;5100594;28;20675;-75
2022/12/31 01:28:27;;;;;;;;;;;;;;;6.84;100.00;97975.09;5097894;28;19988;-75
2022/12/31 01:30:55;;;;;;;;;;;;;;;6.83;100.00;97984.91;5095098;28;19956;-75
2022/12/31 01:33:21;;;;;;;;;;;;;;;6.77;100.00;97977.06;5096913;28;20026;-75
2022/12/31 01:35:47;;;;;;;;;;;;;;;6.88;100.00;97992.94;5098616;28;19974;-75
2022/12/31 01:38:14;;;;;;;;;;;;;;;6.96;100.00;98000.50;5098506;28;19924;-75
2022/12/31 01:40:41;;;;;;;;;;;;;;;6.82;100.00;97970.00;5095095;28;19963;-75
2022/12/31 01:43:14;;;;;;;;;;;;;;;6.77;100.00;97975.22;5095976;28;19987;-74
2022/12/31 01:45:41;;;;;;;;;;;;;;;6.92;100.00;97994.09;5098764;28;20057;-74
2022/12/31 01:48:12;;;;;;;;;;;;;;;6.81;100.00;97997.56;5098197;28;19988;-74
2022/12/31 01:50:40;;;;;;;;;;;;;;;6.94;100.00;97985.88;5095200;28;19991;-74
2022/12/31 01:53:08;;;;;;;;;;;;;;;6.88;100.00;97992.13;5090996;28;19971;-75
2022/12/31 01:55:37;;;;;;;;;;;;;;;6.87;100.00;97975.38;5097519;28;19924;-74
2022/12/31 01:58:05;;;;;;;;;;;;;;;6.93;100.00;97976.31;5098922;28;19955;-75
2022/12/31 02:00:31;;;;;;;;;;;;;;;6.89;100.00;97983.94;5098935;28;19924;-74
2022/12/31 02:02:58;;;;;;;;;;;;;;;6.95;100.00;97990.16;5100877;28;19924;-75
2022/12/31 02:05:29;;;;;;;;;;;;;;;6.91;100.00;97986.34;5095384;28;19939;-76
2022/12/31 02:07:56;;;;;;;;;;;;;;;6.86;100.00;97976.47;5099420;28;19959;-75
2022/12/31 02:10:22;;;;;;;;;;;;;;;6.94;100.00;97976.06;5098020;28;19924;-75
2022/12/31 02:12:48;;;;;;;;;;;;;;;6.91;100.00;97975.72;5095814;28;19952;-75
2022/12/31 02:15:15;;;;;;;;;;;;;;;6.94;100.00;97981.38;5095996;28;20353;-75
2022/12/31 02:17:46;;;;;;;;;;;;;;;6.84;100.00;97975.09;5097851;28;20003;-75
2022/12/31 02:20:25;;;;;;;;;;;;;;;6.84;100.00;97983.06;5098023;28;19962;-75
2022/12/31 02:23:14;;;;;;;;;;;;;;;6.72;100.00;97987.56;5083790;28;19991;-76
2022/12/31 02:25:50;;;;;;;;;;;;;;;6.81;100.00;97991.47;5097294;28;20010;-75
2022/12/31 02:28:24;;;;;;;;;;;;;;;6.80;100.00;98003.13;5099565;28;19934;-75
2022/12/31 02:30:54;;;;;;;;;;;;;;;6.83;100.00;98003.47;5091084;28;19987;-75
2022/12/31 02:33:23;;;;;;;;;;;;;;;6.85;100.00;98000.56;5092252;28;19958;-75
2022/12/31 02:35:52;;;;;;;;;;;;;;;6.84;100.00;98004.28;5094007;28;20637;-73
2022/12/31 02:38:21;;;;;;;;;;;;;;;6.83;100.00;97987.56;5095527;28;20373;-74
2022/12/31 02:40:47;;;;;;;;;;;;;;;6.79;100.00;97988.25;5099777;28;19929;-74
2022/12/31 02:43:14;;;;;;;;;;;;;;;6.81;100.00;97997.56;5089906;28;19921;-74
2022/12/31 02:45:41;;;;;;;;;;;;;;;6.79;100.00;97993.56;5096952;28;19967;-74
2022/12/31 02:48:26;;;;;;;;;;;;;;;6.84;100.00;97997.09;5097753;28;19924;-74
2022/12/31 02:50:56;;;;;;;;;;;;;;;6.82;100.00;97996.53;5090282;28;19962;-73
2022/12/31 02:53:30;;;;;;;;;;;;;;;6.97;100.00;98006.63;5089080;28;20319;-74
2022/12/31 02:56:01;;;;;;;;;;;;;;;7.01;100.00;98007.78;5098391;28;19959;-74
2022/12/31 03:06:46;;;;;;;;;;;;;;;6.92;100.00;98017.16;5084661;28;20545;-75
2022/12/31 03:09:12;;;;;;;;;;;;;;;6.91;100.00;98020.84;5095067;28;19924;-75
2022/12/31 03:14:23;;;;;;;;;;;;;;;6.97;100.00;98022.56;5097811;28;20034;-75
2022/12/31 03:16:49;;;;;;;;;;;;;;;6.96;100.00;98010.34;5093802;28;19971;-74
2022/12/31 03:27:31;;;;;;;;;;;;;;;7.00;100.00;98024.75;5095871;28;19970;-74
2022/12/31 03:29:58;;;;;;;;;;;;;;;7.01;100.00;98034.34;5098023;28;19924;-74
2022/12/31 03:32:24;;;;;;;;;;;;;;;6.97;100.00;98033.19;5098465;28;20022;-75
2022/12/31 03:34:52;;;;;;;;;;;;;;;7.04;100.00;98033.84;5095480;28;19928;-75
2022/12/31 03:37:18;;;;;;;;;;;;;;;6.98;100.00;98040.13;5096057;28;19928;-75
2022/12/31 03:39:44;;;;;;;;;;;;;;;7.02;100.00;98050.00;5098092;28;20326;-75
2022/12/31 03:42:11;;;;;;;;;;;;;;;7.06;100.00;98047.69;5096753;28;19924;-75
2022/12/31 03:44:37;;;;;;;;;;;;;;;7.05;100.00;98056.72;5094172;28;19924;-75
2022/12/31 03:47:04;;;;;;;;;;;;;;;7.03;100.00;98051.63;5093380;28;19928;-74
2022/12/31 03:49:30;;;;;;;;;;;;;;;7.05;100.00;98057.53;5094634;28;19924;-74
2022/12/31 03:51:58;;;;;;;;;;;;;;;7.08;100.00;98061.56;5098195;28;20014;-75
2022/12/31 03:54:24;;;;;;;;;;;;;;;7.06;100.00;98053.81;5094429;28;19924;-75
2022/12/31 03:56:51;;;;;;;;;;;;;;;7.05;100.00;98048.75;5097652;28;19921;-75
2022/12/31 03:59:17;;;;;;;;;;;;;;;7.02;100.00;98046.56;5098783;28;19929;-75
2022/12/31 04:01:44;;;;;;;;;;;;;;;7.06;100.00;98039.72;5101500;28;19930;-75
2022/12/31 04:04:10;;;;;;;;;;;;;;;7.11;100.00;98042.50;5102537;28;19990;-75
2022/12/31 04:06:36;;;;;;;;;;;;;;;6.97;100.00;98052.59;5100711;28;19959;-74
2022/12/31 04:09:04;;;;;;;;;;;;;;;7.08;100.00;98050.94;5099454;28;20411;-74
2022/12/31 04:11:31;;;;;;;;;;;;;;;7.03;100.00;98042.84;5100600;28;19980;-74
2022/12/31 04:13:58;;;;;;;;;;;;;;;6.97;100.00;98049.94;5102472;28;19931;-74
2022/12/31 04:16:24;;;;;;;;;;;;;;;7.09;100.00;98035.81;5100097;28;19935;-74
2022/12/31 04:18:50;;;;;;;;;;;;;;;7.06;100.00;98048.50;5098385;28;19925;-75
2022/12/31 04:21:17;;;;;;;;;;;;;;;7.11;100.00;98047.00;5098060;28;19928;-75
2022/12/31 04:23:43;;;;;;;;;;;;;;;7.07;100.00;98036.03;5100453;28;19932;-75
2022/12/31 04:26:11;;;;;;;;;;;;;;;7.11;100.00;98039.03;5102829;28;19955;-75
2022/12/31 04:28:37;;;;;;;;;;;;;;;7.07;100.00;98050.13;5099416;28;19971;-75
2022/12/31 04:31:04;;;;;;;;;;;;;;;6.94;100.00;98055.72;5096772;28;19960;-75
2022/12/31 04:33:30;;;;;;;;;;;;;;;6.98;100.00;98053.41;5097727;28;20329;-75
2022/12/31 04:36:00;;;;;;;;;;;;;;;7.07;100.00;98055.44;5101327;28;19955;-75
2022/12/31 04:38:28;;;;;;;;;;;;;;;7.03;100.00;98048.16;5100295;28;19931;-75
2022/12/31 04:43:42;;;;;;;;;;;;;;;6.98;100.00;98056.06;5098225;28;19927;-75
2022/12/31 04:46:09;;;;;;;;;;;;;;;7.01;100.00;98066.19;5099924;28;19924;-75
2022/12/31 04:48:35;;;;;;;;;;;;;;;6.97;100.00;98071.16;5098957;28;19931;-75
2022/12/31 04:51:02;;;;;;;;;;;;;;;7.05;100.00;98073.47;5097725;28;19959;-75
2022/12/31 04:53:28;;;;;;;;;;;;;;;7.03;100.00;98077.38;5093803;28;19960;-75
2022/12/31 04:55:54;;;;;;;;;;;;;;;7.18;100.00;98087.50;5099761;28;20011;-75
2022/12/31 04:58:21;;;;;;;;;;;;;;;7.13;100.00;98082.88;5099512;28;20011;-75
2022/12/31 05:00:53;;;;;;;;;;;;;;;7.18;100.00;98082.19;5096472;28;19960;-75
2022/12/31 05:03:20;;;;;;;;;;;;;;;7.21;100.00;98077.19;5096499;28;19939;-75
2022/12/31 05:05:46;;;;;;;;;;;;;;;7.15;100.00;98080.78;5088770;28;19932;-75
2022/12/31 05:08:13;;;;;;;;;;;;;;;7.26;100.00;98079.97;5097813;28;19946;-75
2022/12/31 05:10:41;;;;;;;;;;;;;;;7.24;100.00;98091.88;5102079;28;19928;-75
2022/12/31 05:13:07;;;;;;;;;;;;;;;7.25;100.00;98082.84;5102115;28;20023;-75
2022/12/31 05:15:33;;;;;;;;;;;;;;;7.27;100.00;98094.06;5099531;28;20094;-75
2022/12/31 05:18:01;;;;;;;;;;;;;;;7.30;100.00;98097.06;5097916;28;19932;-75
2022/12/31 05:20:28;;;;;;;;;;;;;;;7.28;100.00;98093.81;5098142;28;19938;-75
2022/12/31 05:22:54;;;;;;;;;;;;;;;7.28;100.00;98093.00;5093244;28;19925;-76
2022/12/31 05:25:20;;;;;;;;;;;;;;;7.25;100.00;98088.16;5095696;28;19924;-75
2022/12/31 05:27:47;;;;;;;;;;;;;;;7.08;100.00;98101.41;5100113;28;19952;-75
2022/12/31 05:30:14;;;;;;;;;;;;;;;7.21;100.00;98092.34;5099081;28;19927;-75
2022/12/31 05:32:40;;;;;;;;;;;;;;;7.10;100.00;98088.69;5097426;28;19939;-75
2022/12/31 05:35:09;;;;;;;;;;;;;;;7.18;100.00;98087.50;5095659;28;19928;-75
2022/12/31 05:37:35;;;;;;;;;;;;;;;7.20;100.00;98096.03;5098531;28;19984;-75
2022/12/31 05:40:01;;;;;;;;;;;;;;;7.26;100.00;98095.91;5098777;28;20605;-75
2022/12/31 05:42:28;;;;;;;;;;;;;;;7.28;100.00;98085.84;5097576;28;19931;-75
2022/12/31 05:44:54;;;;;;;;;;;;;;;7.20;100.00;98094.19;5095162;28;19951;-75
2022/12/31 05:47:20;;;;;;;;;;;;;;;7.24;100.00;98097.97;5096585;28;19992;-76
2022/12/31 05:49:47;;;;;;;;;;;;;;;7.22;100.00;98097.41;5098782;28;19988;-75
2022/12/31 05:52:15;;;;;;;;;;;;;;;7.22;100.00;98101.91;5096819;28;19964;-75
2022/12/31 05:54:41;;;;;;;;;;;;;;;7.22;100.00;98097.41;5096460;28;19984;-75
2022/12/31 05:57:08;;;;;;;;;;;;;;;7.18;100.00;98103.44;5096508;28;19987;-76
2022/12/31 05:59:37;;;;;;;;;;;;;;;7.27;100.00;98124.06;5100992;28;20294;-75
2022/12/31 06:02:03;;;;;;;;;;;;;;;7.27;100.00;98116.09;5099667;28;19966;-75
2022/12/31 06:04:30;;;;;;;;;;;;;;;7.24;100.00;98110.47;5097921;28;20011;-75
2022/12/31 06:06:56;;;;;;;;;;;;;;;7.22;100.00;98121.31;5095938;28;19931;-75
2022/12/31 06:09:24;;;;;;;;;;;;;;;7.24;100.00;98118.44;5096444;28;19920;-75
2022/12/31 06:11:50;;;;;;;;;;;;;;;7.29;100.00;98113.22;5099369;28;19970;-75
2022/12/31 06:14:17;;;;;;;;;;;;;;;7.28;100.00;98128.34;5098575;28;20461;-75
2022/12/31 06:16:43;;;;;;;;;;;;;;;7.31;100.00;98130.53;5094711;28;19921;-75
2022/12/31 06:19:10;;;;;;;;;;;;;;;7.25;100.00;98130.66;5096101;28;19996;-75
2022/12/31 06:21:36;;;;;;;;;;;;;;;7.23;100.00;98125.59;5097484;28;20046;-75
2022/12/31 06:24:02;;;;;;;;;;;;;;;7.30;100.00;98123.63;5093614;28;19991;-75
2022/12/31 06:26:30;;;;;;;;;;;;;;;7.32;100.00;98124.19;5097357;28;19924;-75
2022/12/31 06:28:56;;;;;;;;;;;;;;;7.30;100.00;98125.47;5096472;28;20535;-75
2022/12/31 06:31:23;;;;;;;;;;;;;;;7.32;100.00;98123.38;5096126;28;19924;-75
2022/12/31 06:33:49;;;;;;;;;;;;;;;7.31;100.00;98127.88;5099150;28;19924;-75
2022/12/31 06:36:16;;;;;;;;;;;;;;;7.31;100.00;98117.25;5098847;28;20421;-75
2022/12/31 06:38:43;;;;;;;;;;;;;;;7.17;100.00;98126.53;5094425;28;19924;-75
2022/12/31 06:41:10;;;;;;;;;;;;;;;7.23;100.00;98117.63;5094110;28;19952;-75
2022/12/31 06:43:39;;;;;;;;;;;;;;;7.27;100.00;98128.59;5096375;28;20474;-75
2022/12/31 06:46:06;;;;;;;;;;;;;;;7.23;100.00;98128.25;5100354;28;19983;-75
2022/12/31 06:48:32;;;;;;;;;;;;;;;7.27;100.00;98126.72;5096996;28;19963;-75
2022/12/31 06:51:03;;;;;;;;;;;;;;;7.22;100.00;98120.50;5095112;28;19924;-75
2022/12/31 06:53:29;;;;;;;;;;;;;;;7.16;100.00;98132.88;5090278;28;20015;-75
2022/12/31 06:55:56;;;;;;;;;;;;;;;7.20;100.00;98135.88;5098745;28;19963;-75
2022/12/31 06:58:23;;;;;;;;;;;;;;;7.19;100.00;98134.25;5096978;28;19920;-75
2022/12/31 07:00:54;;;;;;;;;;;;;;;7.28;100.00;98136.31;5093822;28;19925;-75
2022/12/31 07:03:24;;;;;;;;;;;;;;;7.29;100.00;98137.94;5094021;28;20297;-75
2022/12/31 07:05:52;;;;;;;;;;;;;;;7.18;100.00;98146.72;5097397;28;19979;-75
2022/12/31 07:08:24;;;;;;;;;;;;;;;7.08;100.00;98157.16;5097209;28;19955;-75
2022/12/31 07:10:53;;;;;;;;;;;;;;;7.21;100.00;98164.06;5120040;27;19924;-75
2022/12/31 07:13:31;;;;;;;;;;;;;;;7.09;100.00;98172.03;5093833;28;19925;-75
2022/12/31 07:16:07;;;;;;;;;;;;;;;7.12;100.00;98158.28;5088739;28;19936;-75
2022/12/31 07:18:36;;;;;;;;;;;;;;;7.19;100.00;98169.59;5096006;28;19925;-75
2022/12/31 07:21:02;;;;;;;;;;;;;;;7.19;100.00;98161.63;5098808;28;19968;-75
2022/12/31 07:23:29;;;;;;;;;;;;;;;7.07;100.00;98160.84;5088213;28;19948;-75
2022/12/31 07:26:00;;;;;;;;;;;;;;;7.07;100.00;98161.66;5098498;28;19959;-75
2022/12/31 07:28:35;;;;;;;;;;;;;;;7.10;100.00;98167.53;5098560;28;19967;-75
2022/12/31 07:31:06;;;;;;;;;;;;;;;7.12;100.00;98163.59;5098007;28;19932;-75
2022/12/31 07:33:39;;;;;;;;;;;;;;;7.19;100.00;98166.94;5102495;28;20186;-76
2022/12/31 07:36:13;;;;;;;;;;;;;;;7.16;100.00;98170.06;5102643;28;19956;-75
2022/12/31 07:38:43;;;;;;;;;;;;;;;7.15;100.00;98168.44;5098545;28;20317;-75
2022/12/31 07:41:16;;;;;;;;;;;;;;;7.15;100.00;98178.28;5097894;28;20063;-75
2022/12/31 07:43:51;;;;;;;;;;;;;;;7.08;100.00;98178.41;5101650;28;19964;-75
2022/12/31 07:46:22;;;;;;;;;;;;;;;7.15;100.00;98194.22;5100690;28;19992;-75
2022/12/31 07:48:48;;;;;;;;;;;;;;;7.15;100.00;98183.59;5090512;28;19933;-75
2022/12/31 07:51:15;;;;;;;;;;;;;;;7.06;100.00;98183.13;5098707;28;19948;-75
2022/12/31 07:53:41;;;;;;;;;;;;;;;7.14;100.00;98189.94;5096474;28;19924;-75
2022/12/31 07:56:08;;;;;;;;;;;;;;;7.13;100.00;98181.16;5102222;28;19924;-75
2022/12/31 07:58:45;;;;;;;;;;;;;;;7.16;100.00;98186.00;5099830;28;19924;-75
2022/12/31 08:01:15;;;;;;;;;;;;;;;7.21;100.00;98204.69;5098326;28;19925;-75
2022/12/31 08:03:48;;;;;;;;;;;;;;;7.22;100.00;98216.13;5099622;28;19924;-75
2022/12/31 08:06:18;;;;;;;;;;;;;;;7.24;100.00;98198.13;5101798;28;19991;-75
2022/12/31 08:08:49;;;;;;;;;;;;;;;7.17;100.00;98208.06;5097949;28;19924;-75
2022/12/31 08:11:18;;;;;;;;;;;;;;;7.27;100.00;98208.28;5098051;28;19935;-75
2022/12/31 08:13:45;;;;;;;;;;;;;;;7.31;100.00;98204.91;5100141;28;19955;-75
2022/12/31 08:16:13;;;;;;;;;;;;;;;7.37;100.00;98214.59;5100104;28;19924;-74
2022/12/31 08:18:39;;;;;;;;;;;;;;;7.42;100.00;98221.88;5099019;28;19924;-75
2022/12/31 08:21:12;;;;;;;;;;;;;;;7.45;100.00;98216.09;5100261;28;20418;-75
2022/12/31 08:23:43;;;;;;;;;;;;;;;7.54;100.00;98226.13;5094774;28;20077;-75
2022/12/31 08:26:23;;;;;;;;;;;;;;;7.55;100.00;98227.72;5101939;28;19989;-75
2022/12/31 08:29:07;;;;;;;;;;;;;;;7.56;100.00;98212.56;5093353;28;19964;-75
2022/12/31 08:31:40;;;;;;;;;;;;;;;7.30;100.00;98229.88;5090603;28;20000;-75
2022/12/31 08:34:10;;;;;;;;;;;;;;;7.51;100.00;98217.81;5100485;28;19924;-75
2022/12/31 08:36:43;;;;;;;;;;;;;;;7.35;100.00;98222.00;5098196;28;19991;-75
2022/12/31 08:39:16;;;;;;;;;;;;;;;7.55;100.00;98227.72;5097702;28;20003;-75
2022/12/31 08:41:44;;;;;;;;;;;;;;;7.41;100.00;98223.72;5099682;28;19962;-75
2022/12/31 08:44:19;;;;;;;;;;;;;;;7.65;100.00;98215.66;5099463;28;19983;-75
2022/12/31 08:46:49;;;;;;;;;;;;;;;7.65;100.00;98221.78;5097243;28;19951;-75
2022/12/31 08:49:16;;;;;;;;;;;;;;;7.75;100.00;98214.03;5098503;28;19939;-75
2022/12/31 08:51:44;;;;;;;;;;;;;;;7.61;100.00;98234.75;5101399;28;19927;-75
2022/12/31 08:54:11;;;;;;;;;;;;;;;7.73;100.00;98220.63;5096997;28;19984;-75
2022/12/31 08:56:40;;;;;;;;;;;;;;;8.00;100.00;98219.00;5097852;28;19924;-76
2022/12/31 08:59:12;;;;;;;;;;;;;;;8.05;100.00;98221.75;5097921;28;19935;-76
2022/12/31 09:01:43;;;;;;;;;;;;;;;8.11;100.00;98210.94;5099923;28;19936;-75
2022/12/31 09:04:20;;;;;;;;;;;;;;;7.73;100.00;98228.59;5100133;28;19935;-75
2022/12/31 09:06:50;;;;;;;;;;;;;;;8.20;100.00;98229.97;5089935;28;19920;-76
2022/12/31 09:09:21;;;;;;;;;;;;;;;8.22;100.00;98233.22;5098508;28;19925;-76
2022/12/31 09:11:54;;;;;;;;;;;;;;;8.47;100.00;98233.69;5087975;28;19925;-75
2022/12/31 09:14:36;;;;;;;;;;;;;;;8.49;100.00;98238.75;5097343;28;19988;-75
2022/12/31 09:17:04;;;;;;;;;;;;;;;8.57;100.00;98241.81;5090930;28;19925;-75
2022/12/31 09:19:30;;;;;;;;;;;;;;;8.63;100.00;98243.53;5097003;28;19925;-75
2022/12/31 09:21:58;;;;;;;;;;;;;;;8.72;100.00;98241.28;5099942;28;19938;-75
2022/12/31 09:24:25;;;;;;;;;;;;;;;8.61;100.00;98234.97;5093520;28;19983;-76
2022/12/31 09:26:57;;;;;;;;;;;;;;;8.84;100.00;98241.19;5096477;28;19928;-75
2022/12/31 09:29:29;;;;;;;;;;;;;;;8.92;100.00;98248.75;5096269;28;19988;-75
2022/12/31 09:31:59;;;;;;;;;;;;;;;9.05;100.00;98243.09;5099736;28;19967;-75
2022/12/31 09:34:28;;;;;;;;;;;;;;;9.02;100.00;98233.75;5098179;28;19920;-75
2022/12/31 09:36:59;;;;;;;;;;;;;;;8.97;100.00;98246.19;5095202;28;19940;-76
2022/12/31 09:39:32;;;;;;;;;;;;;;;9.06;100.00;98234.88;5097659;28;19937;-75
2022/12/31 09:42:10;;;;;;;;;;;;;;;9.28;100.00;98236.75;5099451;28;19987;-75
2022/12/31 09:44:52;;;;;;;;;;;;;;;9.40;100.00;98224.94;5097391;28;19975;-76
2022/12/31 09:47:43;;;;;;;;;;;;;;;9.48;100.00;98224.50;5095750;28;19948;-75
2022/12/31 09:50:20;;;;;;;;;;;;;;;9.57;100.00;98240.84;5085092;28;19928;-76
2022/12/31 09:52:58;;;;;;;;;;;;;;;9.60;100.00;98240.34;5083174;28;19936;-76
2022/12/31 09:55:31;;;;;;;;;;;;;;;9.74;100.00;98231.75;5100063;28;20011;-76
2022/12/31 09:58:03;;;;;;;;;;;;;;;9.72;100.00;98227.69;5100980;28;19951;-76
2022/12/31 10:00:34;;;;;;;;;;;;;;;9.69;100.00;98229.00;5097770;28;20087;-76
2022/12/31 10:03:06;;;;;;;;;;;;;;;9.81;100.00;98228.88;5095769;28;19939;-75
2022/12/31 10:05:51;;;;;;;;;;;;;;;9.98;100.00;98234.13;5098152;28;19995;-75
2022/12/31 10:08:29;;;;;;;;;;;;;;;10.07;100.00;98237.94;5098008;28;19983;-75
2022/12/31 10:10:58;;;;;;;;;;;;;;;9.93;100.00;98239.41;5088893;28;19924;-75
2022/12/31 10:13:45;;;;;;;;;;;;;;;10.04;100.00;98236.59;5096579;28;19924;-75
2022/12/31 10:16:16;;;;;;;;;;;;;;;9.98;100.00;98234.13;5095992;28;19966;-74
2022/12/31 10:18:54;;;;;;;;;;;;;;;10.16;100.00;98249.81;5095319;28;19928;-74
2022/12/31 10:21:40;;;;;;;;;;;;;;;10.23;100.00;98256.56;5096098;28;19925;-74
2022/12/31 10:24:17;;;;;;;;;;;;;;;10.24;100.00;98244.03;5088197;28;19930;-74
2022/12/31 10:26:54;;;;;;;;;;;;;;;10.21;100.00;98236.53;5095695;28;19920;-73
2022/12/31 10:29:24;;;;;;;;;;;;;;;9.92;100.00;98233.28;5094050;28;20007;-74
2022/12/31 10:31:57;;;;;;;;;;;;;;;9.71;100.00;98226.91;5098940;28;20445;-73
2022/12/31 10:34:26;;;;;;;;;;;;;;;10.29;100.00;98218.19;5098289;28;19964;-73
2022/12/31 10:36:54;;;;;;;;;;;;;;;10.62;100.00;98206.44;5095153;28;19932;-73
2022/12/31 10:39:26;;;;;;;;;;;;;;;10.68;100.00;98215.28;5093897;28;19924;-73
2022/12/31 10:42:18;;;;;;;;;;;;;;;10.27;100.00;98214.97;5089928;28;19959;-73
2022/12/31 10:44:53;;;;;;;;;;;;;;;10.58;100.00;98208.03;5098114;28;19958;-73
2022/12/31 10:47:36;;;;;;;;;;;;;;;10.89;100.00;98224.28;5099158;28;19928;-73
2022/12/31 10:50:36;;;;;;;;;;;;;;;11.02;100.00;98221.13;5089347;28;19980;-73
2022/12/31 10:53:14;;;;;;;;;;;;;;;11.24;100.00;98224.47;5084048;28;19977;-73
2022/12/31 10:55:59;;;;;;;;;;;;;;;11.27;100.00;98218.63;5097235;28;19928;-73
2022/12/31 10:58:56;;;;;;;;;;;;;;;11.44;100.00;98213.91;5097511;28;19980;-73
2022/12/31 11:01:28;;;;;;;;;;;;;;;11.55;100.00;98220.06;5092196;28;19975;-73
2022/12/31 11:04:19;;;;;;;;;;;;;;;11.62;100.00;98205.41;5091687;27;20002;-73
2022/12/31 11:07:07;;;;;;;;;;;;;;;11.67;100.00;98208.09;5094470;28;19999;-73
2022/12/31 11:10:02;;;;;;;;;;;;;;;11.92;100.00;98202.03;5096243;28;19930;-74
2022/12/31 11:12:58;;;;;;;;;;;;;;;11.71;100.00;98209.22;5096877;28;19955;-73
2022/12/31 11:15:42;;;;;;;;;;;;;;;11.74;100.00;98216.72;5092681;28;19925;-73
2022/12/31 11:18:15;;;;;;;;;;;;;;;11.57;100.00;98209.94;5097507;27;19964;-73
2022/12/31 11:21:09;;;;;;;;;;;;;;;11.56;100.00;98201.09;5095276;28;19928;-74
2022/12/31 11:23:39;;;;;;;;;;;;;;;11.59;100.00;98199.78;5091885;28;19992;-73
2022/12/31 11:26:12;;;;;;;;;;;;;;;11.60;100.00;98209.41;5098664;28;19958;-73
2022/12/31 11:28:45;;;;;;;;;;;;;;;11.50;100.00;98217.41;5098402;28;19983;-73
2022/12/31 11:31:17;;;;;;;;;;;;;;;11.58;100.00;98208.84;5095227;28;19994;-74
2022/12/31 11:33:57;;;;;;;;;;;;;;;11.51;100.00;98211.00;5096340;28;19991;-74
2022/12/31 11:36:30;;;;;;;;;;;;;;;11.44;100.00;98219.25;5096251;28;19931;-72
2022/12/31 11:39:03;;;;;;;;;;;;;;;11.53;100.00;98215.00;5094491;28;20019;-73
2022/12/31 11:41:34;;;;;;;;;;;;;;;11.52;100.00;98208.03;5094123;28;19928;-72
2022/12/31 11:44:02;;;;;;;;;;;;;;;11.41;100.00;98206.41;5096877;28;19952;-74
2022/12/31 11:46:39;;;;;;;;;;;;;;;11.44;100.00;98211.22;5097564;28;19924;-74
2022/12/31 11:49:13;;;;;;;;;;;;;;;11.50;100.00;98207.50;5094178;28;19937;-74
2022/12/31 11:51:47;;;;;;;;;;;;;;;11.49;100.00;98211.22;5096879;28;20250;-73
2022/12/31 11:54:24;;;;;;;;;;;;;;;11.54;100.00;98192.56;5092508;28;19920;-73
2022/12/31 11:56:53;;;;;;;;;;;;;;;11.47;100.00;98196.53;5086670;28;19929;-73
2022/12/31 11:59:20;;;;;;;;;;;;;;;11.52;100.00;98202.69;5094147;28;20329;-73
2022/12/31 12:01:51;;;;;;;;;;;;;;;11.56;100.00;98194.94;5086027;28;19992;-73
2022/12/31 12:04:19;;;;;;;;;;;;;;;11.54;100.00;98192.56;5094385;28;20437;-73
2022/12/31 12:06:45;;;;;;;;;;;;;;;11.63;100.00;98195.53;5097755;28;19987;-73
2022/12/31 12:09:14;;;;;;;;;;;;;;;11.67;100.00;98192.03;5096745;28;19999;-73
2022/12/31 12:11:41;;;;;;;;;;;;;;;11.59;100.00;98181.88;5093941;28;19924;-74
2022/12/31 12:14:18;;;;;;;;;;;;;;;11.73;100.00;98183.00;5094641;28;19920;-74
2022/12/31 12:16:45;;;;;;;;;;;;;;;11.72;100.00;98186.75;5101149;28;19963;-74
2022/12/31 12:19:16;;;;;;;;;;;;;;;11.80;100.00;98172.84;5101436;28;20439;-74
2022/12/31 12:21:46;;;;;;;;;;;;;;;11.82;100.00;98188.66;5098468;28;19925;-74
2022/12/31 12:24:19;;;;;;;;;;;;;;;11.66;100.00;98185.09;5092856;28;19924;-74
2022/12/31 12:26:45;;;;;;;;;;;;;;;11.79;100.00;98183.84;5096298;28;20317;-73
2022/12/31 12:29:16;;;;;;;;;;;;;;;11.85;100.00;98182.78;5096615;28;19944;-73
2022/12/31 12:31:42;;;;;;;;;;;;;;;11.96;100.00;98179.03;5098963;28;19924;-73
2022/12/31 12:34:21;;;;;;;;;;;;;;;11.91;100.00;98171.78;5100167;28;19966;-73
2022/12/31 12:36:49;;;;;;;;;;;;;;;11.54;100.00;98181.84;5122329;27;19932;-73
2022/12/31 12:39:22;;;;;;;;;;;;;;;11.81;100.00;98163.75;5097788;28;19925;-74
2022/12/31 12:41:59;;;;;;;;;;;;;;;11.86;100.00;98163.75;5089335;28;19955;-73
2022/12/31 12:44:25;;;;;;;;;;;;;;;11.62;100.00;98173.31;5098013;28;19924;-74
2022/12/31 12:46:52;;;;;;;;;;;;;;;11.77;100.00;98175.25;5100391;28;19969;-74
2022/12/31 12:49:21;;;;;;;;;;;;;;;11.83;100.00;98169.66;5100558;28;19920;-73
2022/12/31 12:52:02;;;;;;;;;;;;;;;11.62;100.00;98173.31;5075457;28;19925;-73
2022/12/31 12:54:36;;;;;;;;;;;;;;;11.77;100.00;98170.69;5096210;28;19924;-73
2022/12/31 12:57:07;;;;;;;;;;;;;;;11.64;100.00;98176.50;5098970;28;19991;-74
2022/12/31 12:59:44;;;;;;;;;;;;;;;11.76;100.00;98171.75;5097798;28;19985;-74
2022/12/31 13:02:29;;;;;;;;;;;;;;;11.80;100.00;98175.53;5096679;28;20806;-74
2022/12/31 13:05:03;;;;;;;;;;;;;;;11.86;100.00;98174.47;5102151;28;19925;-74
2022/12/31 13:07:36;;;;;;;;;;;;;;;11.85;100.00;98180.09;5095041;28;19980;-73
2022/12/31 13:10:25;;;;;;;;;;;;;;;11.72;100.00;98184.06;5100244;28;20008;-73
2022/12/31 13:12:56;;;;;;;;;;;;;;;11.84;100.00;98181.16;5089148;28;19971;-74
2022/12/31 13:15:26;;;;;;;;;;;;;;;11.65;100.00;98193.38;5097579;28;20014;-74
2022/12/31 13:17:58;;;;;;;;;;;;;;;11.46;100.00;98192.22;5100191;28;19966;-74
2022/12/31 13:20:29;;;;;;;;;;;;;;;11.68;100.00;98185.63;5098994;28;20016;-73
2022/12/31 13:23:01;;;;;;;;;;;;;;;11.71;100.00;98171.75;5090015;28;20072;-74
2022/12/31 13:25:31;;;;;;;;;;;;;;;11.76;100.00;98163.72;5097283;28;19952;-74